Algosea — CFN4229 — position and weather

sailwx.info

Track history (hours):
 
Tides and Currents Weather Stations Pressure Air Temp Water Temp Dewpoint Dewpoint Depression Visibility Wind Speed Wind Dir Waves Ship Positions

Algosea

Last reported at 2016-Feb-07 18:33 UTC. Time now 2016-Feb-08 12:33 UTC.
Position N 42°46' W 082°28'.

Length 144 m; draft 7.5 m.

Type: Ship (hazmat cat A). MMSI: 316006868.

Date/timePositionNaut miles runAvg speedWind from/ knotsBaromVisibWave heightAir tempDewpointWater temp
2016-Feb-07 18:33N 42°46' W 082°28'8 8.4
2016-Feb-07 17:33N 42°37' W 082°31'8 8.2
2016-Feb-07 16:33N 42°32' W 082°39'10 9.9
2016-Feb-07 15:33N 42°25' W 082°49'115 5.7
2016-Feb-06 19:19N 42°27' W 080°14'7 9.0
2016-Feb-06 18:32N 42°30' W 080°05'8 8.2
2016-Feb-06 17:33N 42°38' W 080°02'9 8.6
2016-Feb-06 16:34N 42°46' W 080°04'2 0.0
2016-Feb-04 17:32N 42°48' W 080°03'2 2.2
2016-Feb-04 16:33N 42°46' W 080°04'5 5.4
2016-Feb-04 15:33N 42°44' W 080°11'0 0.0
2016-Feb-04 14:33N 42°44' W 080°11'0 0.0
2016-Feb-04 13:33N 42°44' W 080°11'0 0.0
2016-Feb-04 12:33N 42°44' W 080°11'0 0.0
2016-Feb-04 11:33N 42°44' W 080°11'0 0.0
2016-Feb-04 10:33N 42°44' W 080°11'0 0.0
2016-Feb-04 09:33N 42°44' W 080°11'0 0.0
2016-Feb-04 08:33N 42°44' W 080°11'0 0.0
2016-Feb-04 07:33N 42°44' W 080°11'0 0.0
2016-Feb-04 06:33N 42°44' W 080°11'7 7.2
2016-Feb-04 05:33N 42°38' W 080°05'130 8.6
2016-Feb-03 14:31N 42°20' W 082°59'1010.8
2016-Feb-03 13:33N 42°26' W 082°48'1010.4
2016-Feb-03 12:33N 42°33' W 082°37'9 9.3
2016-Feb-03 11:33N 42°41' W 082°30'4 0.1
2016-Feb-01 12:19N 42°44' W 082°29'7 9.8
2016-Feb-01 11:33N 42°37' W 082°31'9 9.4
2016-Feb-01 10:33N 42°31' W 082°41'1111.2
2016-Feb-01 09:33N 42°23' W 082°52'119 7.7
2016-Jan-31 18:06N 42°28' W 080°12'712.1
2016-Jan-31 17:32N 42°30' W 080°03'1110.6
2016-Jan-31 16:33N 42°41' W 080°04'7 0.2
2016-Jan-30 05:22N 42°48' W 080°03'2 2.3
2016-Jan-30 04:33N 42°46' W 080°03'6 5.6
2016-Jan-30 03:33N 42°45' W 080°11'0 0.0
2016-Jan-30 02:30N 42°45' W 080°11'0 0.0
2016-Jan-30 01:30N 42°45' W 080°11'0 0.0
2016-Jan-30 00:30N 42°45' W 080°11'0 0.0
2016-Jan-29 23:30N 42°45' W 080°11'0 0.0
2016-Jan-29 22:30N 42°45' W 080°11'0 0.0
2016-Jan-29 21:30N 42°45' W 080°11'0 0.0
2016-Jan-29 20:30N 42°45' W 080°11'0 0.0
2016-Jan-29 19:30N 42°45' W 080°11'0 0.0
2016-Jan-29 18:30N 42°45' W 080°11'0 0.0
2016-Jan-29 17:24N 42°45' W 080°11'0 0.0
2016-Jan-29 16:30N 42°45' W 080°11'0 0.0
2016-Jan-29 15:30N 42°45' W 080°11'0 0.0
2016-Jan-29 14:30N 42°45' W 080°11'0 0.0
2016-Jan-29 13:30N 42°45' W 080°11'0 0.0
2016-Jan-29 12:24N 42°45' W 080°11'0 0.0
2016-Jan-29 11:33N 42°45' W 080°11'0 0.0
2016-Jan-29 10:33N 42°45' W 080°11'0 0.0
2016-Jan-29 09:33N 42°45' W 080°11'0 0.0
2016-Jan-29 08:33N 42°45' W 080°11'0 0.0
2016-Jan-29 07:33N 42°45' W 080°11'0 0.0
2016-Jan-29 06:33N 42°45' W 080°11'0 0.0
2016-Jan-29 05:33N 42°45' W 080°11'0 0.0
2016-Jan-29 04:33N 42°45' W 080°11'0 0.1
2016-Jan-29 03:33N 42°45' W 080°11'0 0.0
2016-Jan-29 02:24N 42°45' W 080°11'0 0.0
2016-Jan-29 01:30N 42°45' W 080°11'0 0.0
2016-Jan-29 00:30N 42°45' W 080°11'0 0.0
2016-Jan-28 23:30N 42°45' W 080°11'0 0.0
2016-Jan-28 22:30N 42°45' W 080°11'0 0.0
2016-Jan-28 21:30N 42°45' W 080°11'0 0.0
2016-Jan-28 20:30N 42°45' W 080°11'0 0.0
2016-Jan-28 19:30N 42°45' W 080°11'  
Track history (hours):
 
Tides and Currents Weather Stations Pressure Air Temp Water Temp Dewpoint Dewpoint Depression Visibility Wind Speed Wind Dir Waves Ship Positions

Algosea

Last reported at 2016-Feb-07 18:33 UTC. Time now 2016-Feb-08 12:33 UTC.
Position N 42°46' W 082°28'.

Length 144 m; draft 7.5 m.

Type: Ship (hazmat cat A). MMSI: 316006868.

Date/timePositionNaut miles runAvg speedWind from/ knotsBaromVisibWave heightAir tempDewpointWater temp
2016-Feb-07 18:33N 42°46' W 082°28'8 8.4
2016-Feb-07 17:33N 42°37' W 082°31'8 8.2
2016-Feb-07 16:33N 42°32' W 082°39'10 9.9
2016-Feb-07 15:33N 42°25' W 082°49'115 5.7
2016-Feb-06 19:19N 42°27' W 080°14'7 9.0
2016-Feb-06 18:32N 42°30' W 080°05'8 8.2
2016-Feb-06 17:33N 42°38' W 080°02'9 8.6
2016-Feb-06 16:34N 42°46' W 080°04'2 0.0
2016-Feb-04 17:32N 42°48' W 080°03'2 2.2
2016-Feb-04 16:33N 42°46' W 080°04'5 5.4
2016-Feb-04 15:33N 42°44' W 080°11'0 0.0
2016-Feb-04 14:33N 42°44' W 080°11'0 0.0
2016-Feb-04 13:33N 42°44' W 080°11'0 0.0
2016-Feb-04 12:33N 42°44' W 080°11'0 0.0
2016-Feb-04 11:33N 42°44' W 080°11'0 0.0
2016-Feb-04 10:33N 42°44' W 080°11'0 0.0
2016-Feb-04 09:33N 42°44' W 080°11'0 0.0
2016-Feb-04 08:33N 42°44' W 080°11'0 0.0
2016-Feb-04 07:33N 42°44' W 080°11'0 0.0
2016-Feb-04 06:33N 42°44' W 080°11'7 7.2
2016-Feb-04 05:33N 42°38' W 080°05'130 8.6
2016-Feb-03 14:31N 42°20' W 082°59'1010.8
2016-Feb-03 13:33N 42°26' W 082°48'1010.4
2016-Feb-03 12:33N 42°33' W 082°37'9 9.3
2016-Feb-03 11:33N 42°41' W 082°30'4 0.1
2016-Feb-01 12:19N 42°44' W 082°29'7 9.8
2016-Feb-01 11:33N 42°37' W 082°31'9 9.4
2016-Feb-01 10:33N 42°31' W 082°41'1111.2
2016-Feb-01 09:33N 42°23' W 082°52'119 7.7
2016-Jan-31 18:06N 42°28' W 080°12'712.1
2016-Jan-31 17:32N 42°30' W 080°03'1110.6
2016-Jan-31 16:33N 42°41' W 080°04'7 0.2
2016-Jan-30 05:22N 42°48' W 080°03'2 2.3
2016-Jan-30 04:33N 42°46' W 080°03'6 5.6
2016-Jan-30 03:33N 42°45' W 080°11'0 0.0
2016-Jan-30 02:30N 42°45' W 080°11'0 0.0
2016-Jan-30 01:30N 42°45' W 080°11'0 0.0
2016-Jan-30 00:30N 42°45' W 080°11'0 0.0
2016-Jan-29 23:30N 42°45' W 080°11'0 0.0
2016-Jan-29 22:30N 42°45' W 080°11'0 0.0
2016-Jan-29 21:30N 42°45' W 080°11'0 0.0
2016-Jan-29 20:30N 42°45' W 080°11'0 0.0
2016-Jan-29 19:30N 42°45' W 080°11'0 0.0
2016-Jan-29 18:30N 42°45' W 080°11'0 0.0
2016-Jan-29 17:24N 42°45' W 080°11'0 0.0
2016-Jan-29 16:30N 42°45' W 080°11'0 0.0
2016-Jan-29 15:30N 42°45' W 080°11'0 0.0
2016-Jan-29 14:30N 42°45' W 080°11'0 0.0
2016-Jan-29 13:30N 42°45' W 080°11'0 0.0
2016-Jan-29 12:24N 42°45' W 080°11'0 0.0
2016-Jan-29 11:33N 42°45' W 080°11'0 0.0
2016-Jan-29 10:33N 42°45' W 080°11'0 0.0
2016-Jan-29 09:33N 42°45' W 080°11'0 0.0
2016-Jan-29 08:33N 42°45' W 080°11'0 0.0
2016-Jan-29 07:33N 42°45' W 080°11'0 0.0
2016-Jan-29 06:33N 42°45' W 080°11'0 0.0
2016-Jan-29 05:33N 42°45' W 080°11'0 0.0
2016-Jan-29 04:33N 42°45' W 080°11'0 0.1
2016-Jan-29 03:33N 42°45' W 080°11'0 0.0
2016-Jan-29 02:24N 42°45' W 080°11'0 0.0
2016-Jan-29 01:30N 42°45' W 080°11'0 0.0
2016-Jan-29 00:30N 42°45' W 080°11'0 0.0
2016-Jan-28 23:30N 42°45' W 080°11'0 0.0
2016-Jan-28 22:30N 42°45' W 080°11'0 0.0
2016-Jan-28 21:30N 42°45' W 080°11'0 0.0
2016-Jan-28 20:30N 42°45' W 080°11'0 0.0
2016-Jan-28 19:30N 42°45' W 080°11'  

Dump ship's entire track history